createdAt,value
2023-03-20T00:01:56.710Z,8.70
2023-03-20T00:04:23.559Z,8.60
2023-03-20T00:06:50.406Z,8.60
2023-03-20T00:09:18.031Z,8.60
2023-03-20T00:11:49.580Z,8.60
2023-03-20T00:14:18.989Z,8.60
2023-03-20T00:16:48.042Z,8.60
2023-03-20T00:19:26.358Z,8.70
2023-03-20T00:21:55.050Z,8.60
2023-03-20T00:24:22.748Z,8.50
2023-03-20T00:26:50.791Z,8.50
2023-03-20T00:29:23.002Z,8.50
2023-03-20T00:31:49.967Z,8.60
2023-03-20T00:34:23.701Z,8.50
2023-03-20T00:36:51.190Z,8.50
2023-03-20T00:39:18.180Z,8.50
2023-03-20T00:41:52.789Z,8.40
2023-03-20T00:44:24.656Z,8.50
2023-03-20T00:46:59.582Z,8.40
2023-03-20T00:49:30.871Z,8.40
2023-03-20T00:51:58.411Z,8.40
2023-03-20T00:54:25.736Z,8.40
2023-03-20T00:57:02.684Z,8.40
2023-03-20T00:59:33.212Z,8.40
2023-03-20T01:02:01.315Z,8.40
2023-03-20T01:04:36.348Z,8.50
2023-03-20T01:07:03.791Z,8.50
2023-03-20T01:09:30.648Z,8.50
2023-03-20T01:11:59.770Z,8.40
2023-03-20T01:14:26.580Z,8.40
2023-03-20T01:16:53.520Z,8.40
2023-03-20T01:19:20.319Z,8.40
2023-03-20T01:21:47.062Z,8.50
2023-03-20T01:24:14.204Z,8.40
2023-03-20T01:26:43.268Z,8.40
2023-03-20T01:29:27.733Z,8.50
2023-03-20T01:31:55.051Z,8.50
2023-03-20T01:34:22.044Z,8.50
2023-03-20T01:36:50.632Z,8.40
2023-03-20T01:39:19.234Z,8.40
2023-03-20T01:41:47.289Z,8.50
2023-03-20T01:44:25.466Z,8.50
2023-03-20T01:46:53.813Z,8.50
2023-03-20T01:49:20.701Z,8.40
2023-03-20T01:51:48.829Z,8.50
2023-03-20T01:54:25.340Z,8.50
2023-03-20T01:56:54.092Z,8.50
2023-03-20T01:59:29.657Z,8.50
2023-03-20T02:01:57.032Z,8.50
2023-03-20T02:04:30.266Z,8.40
2023-03-20T02:06:57.614Z,8.40
2023-03-20T02:09:24.396Z,8.50
2023-03-20T02:11:53.804Z,8.60
2023-03-20T02:14:21.282Z,8.50
2023-03-20T02:16:48.373Z,8.40
2023-03-20T02:19:29.931Z,8.50
2023-03-20T02:22:20.180Z,8.50
2023-03-20T02:25:15.491Z,8.50
2023-03-20T02:28:04.233Z,8.40
2023-03-20T02:30:55.931Z,8.50
2023-03-20T02:33:45.980Z,8.70
2023-03-20T02:37:10.360Z,8.50
2023-03-20T02:40:16.214Z,8.50
2023-03-20T02:42:55.205Z,8.40
2023-03-20T02:45:33.663Z,8.20
2023-03-20T02:48:09.125Z,8.10
2023-03-20T02:50:50.303Z,8.00
2023-03-20T02:53:26.221Z,8.00
2023-03-20T02:56:22.171Z,7.90
2023-03-20T02:59:07.482Z,7.80
2023-03-20T03:01:46.896Z,7.60
2023-03-20T03:04:19.181Z,7.50
2023-03-20T03:06:48.905Z,7.40
2023-03-20T03:09:30.983Z,7.40
2023-03-20T03:12:10.520Z,7.30
2023-03-20T03:14:48.192Z,7.40
2023-03-20T03:17:17.094Z,7.30
2023-03-20T03:19:49.982Z,7.40
2023-03-20T03:22:18.073Z,7.50
2023-03-20T03:24:47.452Z,7.50
2023-03-20T03:27:26.139Z,7.50
2023-03-20T03:29:59.860Z,7.50
2023-03-20T03:32:38.094Z,7.60
2023-03-20T03:35:07.065Z,7.50
2023-03-20T03:37:45.823Z,7.50
2023-03-20T03:40:24.630Z,7.50
2023-03-20T03:42:58.225Z,7.50
2023-03-20T03:45:35.685Z,7.50
2023-03-20T03:48:23.039Z,7.40
2023-03-20T03:50:57.717Z,7.30
2023-03-20T03:53:30.490Z,7.30
2023-03-20T03:56:06.873Z,7.30
2023-03-20T03:58:41.829Z,7.20
2023-03-20T04:01:12.069Z,7.20
2023-03-20T04:03:42.855Z,7.20
2023-03-20T04:06:12.929Z,7.20
2023-03-20T04:08:43.655Z,7.20
2023-03-20T04:11:16.759Z,7.10
2023-03-20T04:13:44.104Z,7.20
2023-03-20T04:16:17.865Z,7.10
2023-03-20T04:18:45.685Z,7.10
2023-03-20T04:21:13.053Z,7.20
2023-03-20T04:23:39.859Z,7.10
2023-03-20T04:26:06.948Z,7.10
2023-03-20T04:28:34.459Z,7.10
2023-03-20T04:31:02.436Z,7.10
2023-03-20T04:33:29.693Z,7.10
2023-03-20T04:35:57.271Z,6.90
2023-03-20T04:38:24.665Z,7.00
2023-03-20T04:40:52.341Z,6.90
2023-03-20T04:43:19.202Z,6.80
2023-03-20T04:45:46.252Z,6.80
2023-03-20T04:48:13.066Z,6.80
2023-03-20T04:50:39.839Z,6.80
2023-03-20T04:53:06.986Z,6.80
2023-03-20T04:55:34.331Z,6.80
2023-03-20T04:58:01.190Z,6.80
2023-03-20T05:00:28.042Z,6.90
2023-03-20T05:02:54.835Z,6.80
2023-03-20T05:05:21.622Z,6.90
2023-03-20T05:07:48.354Z,6.90
2023-03-20T05:10:15.566Z,6.90
2023-03-20T05:12:42.401Z,6.90
2023-03-20T05:15:09.675Z,6.90
2023-03-20T05:17:36.532Z,6.90
2023-03-20T05:20:03.526Z,6.90
2023-03-20T05:22:30.331Z,6.90
2023-03-20T05:24:57.199Z,6.90
2023-03-20T05:27:24.026Z,6.80
2023-03-20T05:29:51.060Z,6.80
2023-03-20T05:32:17.931Z,6.80
2023-03-20T05:34:44.640Z,6.80
2023-03-20T05:37:12.544Z,6.80
2023-03-20T05:39:39.238Z,6.80
2023-03-20T05:42:06.009Z,6.70
2023-03-20T05:44:32.784Z,6.70
2023-03-20T05:46:59.574Z,6.70
2023-03-20T05:49:26.310Z,6.80
2023-03-20T05:51:53.091Z,6.80
2023-03-20T05:54:19.917Z,6.80
2023-03-20T05:56:47.103Z,6.80
2023-03-20T05:59:13.993Z,6.80
2023-03-20T06:01:40.826Z,6.80
2023-03-20T06:04:08.548Z,6.80
2023-03-20T06:06:38.017Z,6.90
2023-03-20T06:09:05.643Z,6.90
2023-03-20T06:11:33.273Z,6.90
2023-03-20T06:14:01.585Z,7.00
2023-03-20T06:16:28.399Z,7.00
2023-03-20T06:18:55.215Z,7.00
2023-03-20T06:21:21.933Z,7.00
2023-03-20T06:23:48.879Z,7.00
2023-03-20T06:26:15.785Z,6.90
2023-03-20T06:28:42.790Z,7.00
2023-03-20T06:31:10.031Z,7.10
2023-03-20T06:33:38.184Z,7.10
2023-03-20T06:36:05.358Z,7.10
2023-03-20T06:38:32.208Z,7.20
2023-03-20T06:40:59.054Z,7.20
2023-03-20T06:43:25.905Z,7.30
2023-03-20T06:45:53.447Z,7.30
2023-03-20T06:48:22.188Z,7.40
2023-03-20T06:50:50.298Z,7.50
2023-03-20T06:53:17.594Z,7.50
2023-03-20T06:55:48.680Z,7.50
2023-03-20T06:58:15.671Z,7.50
2023-03-20T07:00:43.130Z,7.60
2023-03-20T07:03:10.318Z,7.60
2023-03-20T07:05:38.726Z,7.70
2023-03-20T07:08:07.377Z,7.70
2023-03-20T07:10:35.187Z,7.80
2023-03-20T07:13:02.087Z,7.80
2023-03-20T07:15:30.194Z,8.00
2023-03-20T07:17:57.395Z,8.10
2023-03-20T07:20:24.380Z,8.20
2023-03-20T07:25:41.745Z,8.40
2023-03-20T07:28:09.358Z,8.60
2023-03-20T07:30:36.365Z,8.80
2023-03-20T07:33:03.299Z,8.90
2023-03-20T07:35:30.424Z,9.10
2023-03-20T07:37:58.329Z,9.10
2023-03-20T07:40:25.955Z,9.10
2023-03-20T07:42:52.787Z,9.10
2023-03-20T07:45:19.552Z,9.20
2023-03-20T07:47:48.344Z,9.40
2023-03-20T07:50:15.654Z,9.50
2023-03-20T07:52:47.569Z,9.80
2023-03-20T07:55:18.002Z,9.90
2023-03-20T07:57:45.479Z,10.00
2023-03-20T08:00:12.853Z,10.20
2023-03-20T08:02:39.623Z,10.20
2023-03-20T08:05:07.602Z,10.20
2023-03-20T08:07:34.536Z,10.10
2023-03-20T08:10:01.840Z,10.00
2023-03-20T08:12:28.546Z,9.90
2023-03-20T08:14:55.237Z,9.80
2023-03-20T08:17:22.174Z,9.60
2023-03-20T08:19:49.059Z,9.50
2023-03-20T08:22:16.107Z,9.40
2023-03-20T08:24:42.938Z,9.40
2023-03-20T08:27:09.802Z,9.30
2023-03-20T08:29:36.774Z,9.40
2023-03-20T08:32:03.685Z,9.50
2023-03-20T08:34:33.648Z,9.60
2023-03-20T08:37:02.573Z,9.70
2023-03-20T08:39:29.285Z,9.90
2023-03-20T08:41:56.146Z,10.00
2023-03-20T08:44:22.963Z,10.20
2023-03-20T08:46:49.810Z,10.10
2023-03-20T08:49:17.185Z,10.20
2023-03-20T08:51:44.788Z,10.30
2023-03-20T08:54:11.632Z,10.30
2023-03-20T08:56:38.486Z,10.30
2023-03-20T08:59:05.274Z,10.30
2023-03-20T09:01:48.318Z,10.10
2023-03-20T09:04:16.478Z,10.00
2023-03-20T09:06:43.298Z,9.90
2023-03-20T09:09:10.216Z,9.90
2023-03-20T09:11:37.349Z,9.80
2023-03-20T09:14:04.246Z,9.90
2023-03-20T09:16:31.147Z,10.00
2023-03-20T09:18:57.940Z,10.10
2023-03-20T09:21:24.724Z,10.20
2023-03-20T09:23:51.486Z,10.30
2023-03-20T09:26:18.290Z,10.30
2023-03-20T09:28:45.101Z,10.30
2023-03-20T09:31:12.215Z,10.20
2023-03-20T09:33:39.057Z,10.00
2023-03-20T09:36:07.910Z,10.00
2023-03-20T09:38:34.787Z,10.10
2023-03-20T09:41:03.422Z,10.10
2023-03-20T09:43:47.108Z,10.10
2023-03-20T09:46:27.144Z,10.20
2023-03-20T09:48:59.400Z,10.20
2023-03-20T09:51:39.084Z,10.20
2023-03-20T09:54:21.602Z,10.10
2023-03-20T09:56:50.057Z,10.00
2023-03-20T09:59:19.434Z,10.10
2023-03-20T10:01:57.370Z,10.10
2023-03-20T10:04:29.771Z,10.10
2023-03-20T10:06:59.348Z,10.10
2023-03-20T10:09:28.910Z,10.20
2023-03-20T10:12:03.821Z,10.30
2023-03-20T10:14:33.671Z,10.30
2023-03-20T10:17:27.807Z,10.40
2023-03-20T10:20:14.285Z,10.40
2023-03-20T10:25:34.179Z,9.90
2023-03-20T10:28:32.141Z,9.70
2023-03-20T10:31:25.419Z,9.70
2023-03-20T10:33:55.583Z,9.80
2023-03-20T10:36:54.982Z,10.00
2023-03-20T10:39:35.698Z,10.00
2023-03-20T10:42:09.206Z,10.20
2023-03-20T10:44:41.135Z,10.30
2023-03-20T10:47:13.138Z,10.40
2023-03-20T10:50:01.201Z,10.50
2023-03-20T10:52:32.383Z,10.50
2023-03-20T10:55:08.558Z,10.40
2023-03-20T10:57:42.183Z,10.40
2023-03-20T11:00:19.900Z,10.20
2023-03-20T11:02:47.068Z,10.00
2023-03-20T11:05:30.062Z,9.90
2023-03-20T11:08:14.411Z,10.20
2023-03-20T11:10:43.148Z,10.50
2023-03-20T11:13:33.530Z,10.60
2023-03-20T11:16:19.842Z,10.60
2023-03-20T11:18:49.352Z,10.60
2023-03-20T11:21:26.098Z,10.80
2023-03-20T11:23:54.098Z,10.80
2023-03-20T11:26:34.302Z,10.80
2023-03-20T11:29:01.119Z,10.80
2023-03-20T11:31:38.422Z,11.00
2023-03-20T11:34:11.301Z,11.00
2023-03-20T11:36:41.209Z,11.00
2023-03-20T11:39:23.876Z,10.80
2023-03-20T11:41:53.274Z,10.60
2023-03-20T11:44:29.009Z,10.50
2023-03-20T11:47:14.304Z,10.60
2023-03-20T11:49:58.254Z,10.70
2023-03-20T11:52:37.159Z,10.70
2023-03-20T11:55:20.357Z,10.70
2023-03-20T11:57:49.058Z,10.60
2023-03-20T12:00:22.335Z,10.40
2023-03-20T12:02:49.633Z,10.40
2023-03-20T12:05:36.528Z,10.70
2023-03-20T12:08:13.539Z,10.80
2023-03-20T12:10:42.920Z,11.00
2023-03-20T12:13:25.382Z,11.20
2023-03-20T12:15:58.183Z,11.20
2023-03-20T12:18:48.175Z,11.30
2023-03-20T12:21:27.737Z,11.30
2023-03-20T12:24:27.658Z,11.30
2023-03-20T12:27:07.539Z,11.40
2023-03-20T12:29:46.735Z,11.40
2023-03-20T12:32:36.761Z,11.50
2023-03-20T12:35:15.430Z,11.60
2023-03-20T12:37:43.659Z,11.70
2023-03-20T12:40:17.948Z,11.80
2023-03-20T12:43:15.336Z,12.00
2023-03-20T12:45:53.215Z,12.00
2023-03-20T12:48:37.126Z,12.10
2023-03-20T12:51:22.547Z,12.10
2023-03-20T12:54:06.378Z,12.00
2023-03-20T12:57:07.092Z,11.90
2023-03-20T13:00:02.186Z,12.00
2023-03-20T13:03:13.725Z,11.90
2023-03-20T13:05:49.825Z,11.80
2023-03-20T13:08:33.876Z,11.80
2023-03-20T13:11:25.572Z,11.80
2023-03-20T13:14:17.056Z,11.90
2023-03-20T13:16:53.425Z,12.10
2023-03-20T13:19:46.793Z,11.90
2023-03-20T13:22:30.581Z,12.00
2023-03-20T13:25:21.494Z,12.00
2023-03-20T13:28:03.616Z,12.20
2023-03-20T13:30:44.107Z,12.20
2023-03-20T13:33:30.985Z,12.10
2023-03-20T13:36:26.135Z,11.90
2023-03-20T13:39:06.917Z,11.70
2023-03-20T13:41:36.627Z,11.70
2023-03-20T13:44:05.936Z,11.60
2023-03-20T13:46:45.991Z,11.50
2023-03-20T13:49:37.731Z,11.60
2023-03-20T13:52:16.615Z,11.70
2023-03-20T13:55:14.183Z,11.60
2023-03-20T13:57:49.174Z,11.50
2023-03-20T14:00:48.160Z,11.30
2023-03-20T14:03:19.815Z,11.10
2023-03-20T14:05:47.603Z,11.10
2023-03-20T14:08:36.746Z,11.20
2023-03-20T14:11:13.266Z,11.40
2023-03-20T14:13:44.319Z,11.50
2023-03-20T14:16:15.322Z,11.60
2023-03-20T14:18:44.386Z,11.60
2023-03-20T14:21:19.339Z,11.60
2023-03-20T14:23:50.751Z,11.70
2023-03-20T14:26:29.032Z,11.80
2023-03-20T14:31:34.353Z,11.90
2023-03-20T14:34:13.273Z,12.00
2023-03-20T14:37:01.177Z,12.10
2023-03-20T14:39:36.748Z,12.00
2023-03-20T14:42:25.767Z,11.90
2023-03-20T14:45:14.160Z,12.00
2023-03-20T14:48:01.984Z,12.10
2023-03-20T14:50:41.471Z,11.90
2023-03-20T14:53:21.112Z,11.90
2023-03-20T14:55:56.690Z,11.90
2023-03-20T14:58:37.677Z,11.90
2023-03-20T15:01:07.628Z,11.90
2023-03-20T15:03:37.783Z,11.80
2023-03-20T15:06:07.277Z,11.80
2023-03-20T15:08:36.940Z,11.80
2023-03-20T15:11:08.906Z,11.80
2023-03-20T15:13:37.685Z,11.60
2023-03-20T15:16:10.329Z,11.50
2023-03-20T15:18:44.620Z,11.50
2023-03-20T15:21:34.148Z,11.40
2023-03-20T15:24:01.794Z,11.30
2023-03-20T15:26:31.796Z,11.20
2023-03-20T15:29:04.846Z,11.20
2023-03-20T15:31:37.834Z,11.10
2023-03-20T15:34:09.844Z,11.00
2023-03-20T15:36:39.894Z,11.00
2023-03-20T15:39:17.207Z,11.00
2023-03-20T15:41:51.753Z,10.90
2023-03-20T15:44:48.327Z,10.90
2023-03-20T15:47:20.830Z,11.00
2023-03-20T15:49:54.564Z,11.00
2023-03-20T15:52:27.975Z,11.10
2023-03-20T15:54:57.263Z,11.10
2023-03-20T15:57:35.542Z,11.10
2023-03-20T16:00:16.863Z,11.20
2023-03-20T16:02:48.500Z,11.10
2023-03-20T16:05:17.533Z,11.10
2023-03-20T16:07:44.503Z,11.10
2023-03-20T16:10:17.583Z,11.10
2023-03-20T16:12:54.595Z,11.00
2023-03-20T16:15:27.668Z,11.00
2023-03-20T16:17:58.061Z,10.90
2023-03-20T16:20:27.891Z,10.80
2023-03-20T16:23:00.101Z,10.80
2023-03-20T16:25:27.185Z,10.90
2023-03-20T16:27:55.156Z,10.90
2023-03-20T16:30:30.330Z,10.90
2023-03-20T16:33:12.822Z,10.80
2023-03-20T16:35:45.581Z,10.80
2023-03-20T16:38:24.107Z,10.80
2023-03-20T16:40:55.310Z,10.90
2023-03-20T16:43:30.031Z,10.90
2023-03-20T16:46:03.325Z,10.80
2023-03-20T16:48:34.755Z,10.80
2023-03-20T16:51:18.415Z,10.80
2023-03-20T16:53:47.461Z,10.80
2023-03-20T16:56:40.583Z,10.70
2023-03-20T16:59:16.772Z,10.70
2023-03-20T17:01:45.391Z,10.60
2023-03-20T17:04:19.397Z,10.60
2023-03-20T17:06:53.830Z,10.50
2023-03-20T17:09:31.798Z,10.50
2023-03-20T17:12:18.089Z,10.50
2023-03-20T17:14:45.575Z,10.50
2023-03-20T17:17:19.550Z,10.50
2023-03-20T17:19:47.542Z,10.50
2023-03-20T17:22:17.497Z,10.50
2023-03-20T17:24:44.487Z,10.50
2023-03-20T17:27:12.416Z,10.50
2023-03-20T17:29:40.425Z,10.60
2023-03-20T17:32:23.864Z,10.60
2023-03-20T17:34:51.085Z,10.60
2023-03-20T17:37:24.785Z,10.60
2023-03-20T17:39:51.634Z,10.50
2023-03-20T17:42:20.519Z,10.50
2023-03-20T17:44:48.323Z,10.50
2023-03-20T17:47:16.562Z,10.40
2023-03-20T17:49:44.156Z,10.40
2023-03-20T17:52:19.231Z,10.40
2023-03-20T17:54:46.815Z,10.40
2023-03-20T17:57:33.705Z,10.40
2023-03-20T18:00:01.564Z,10.40
2023-03-20T18:02:28.456Z,10.30
2023-03-20T18:04:55.409Z,10.30
2023-03-20T18:07:22.299Z,10.30
2023-03-20T18:09:49.294Z,10.30
2023-03-20T18:12:18.420Z,10.20
2023-03-20T18:14:46.193Z,10.20
2023-03-20T18:17:14.699Z,10.20
2023-03-20T18:19:42.065Z,10.20
2023-03-20T18:22:09.586Z,10.30
2023-03-20T18:24:39.527Z,10.30
2023-03-20T18:27:06.656Z,10.30
2023-03-20T18:29:33.632Z,10.30
2023-03-20T18:32:00.516Z,10.20
2023-03-20T18:34:27.314Z,10.20
2023-03-20T18:36:54.222Z,10.20
2023-03-20T18:39:23.520Z,10.10
2023-03-20T18:41:51.089Z,10.20
2023-03-20T18:44:17.887Z,10.20
2023-03-20T18:46:44.823Z,10.20
2023-03-20T18:49:16.219Z,10.20
2023-03-20T18:51:43.438Z,10.20
2023-03-20T18:54:10.414Z,10.30
2023-03-20T18:56:37.862Z,10.20
2023-03-20T18:59:07.905Z,10.20
2023-03-20T19:01:35.869Z,10.20
2023-03-20T19:04:03.341Z,10.20
2023-03-20T19:06:32.213Z,10.20
2023-03-20T19:08:59.197Z,10.20
2023-03-20T19:11:26.408Z,10.30
2023-03-20T19:13:54.001Z,10.30
2023-03-20T19:16:28.127Z,10.30
2023-03-20T19:18:56.756Z,10.30
2023-03-20T19:21:26.667Z,10.30
2023-03-20T19:24:04.933Z,10.30
2023-03-20T19:26:33.353Z,10.30
2023-03-20T19:29:02.857Z,10.30
2023-03-20T19:31:29.881Z,10.30
2023-03-20T19:33:56.917Z,10.40
2023-03-20T19:36:28.281Z,10.40
2023-03-20T19:38:56.750Z,10.30
2023-03-20T19:41:23.681Z,10.30
2023-03-20T19:43:53.638Z,10.30
2023-03-20T19:46:38.739Z,10.30
2023-03-20T19:49:17.340Z,10.30
2023-03-20T19:51:45.009Z,10.30
2023-03-20T19:54:11.783Z,10.30
2023-03-20T19:56:38.620Z,10.30
2023-03-20T19:59:05.989Z,10.30
2023-03-20T20:01:32.815Z,10.30
2023-03-20T20:03:59.883Z,10.30
2023-03-20T20:06:32.050Z,10.40
2023-03-20T20:09:01.089Z,10.30
2023-03-20T20:11:28.600Z,10.30
2023-03-20T20:14:14.450Z,10.40
2023-03-20T20:16:43.360Z,10.40
2023-03-20T20:19:11.172Z,10.30
2023-03-20T20:24:25.253Z,10.40
2023-03-20T20:27:00.041Z,10.40
2023-03-20T20:29:39.741Z,10.40
2023-03-20T20:32:06.560Z,10.40
2023-03-20T20:35:30.804Z,10.40
2023-03-20T20:38:02.811Z,10.40
2023-03-20T20:40:10.689Z,10.40
2023-03-20T20:42:37.675Z,10.40
2023-03-20T20:45:09.729Z,10.50
2023-03-20T20:47:36.754Z,10.50
2023-03-20T20:50:04.216Z,10.50
2023-03-20T20:52:35.501Z,10.50
2023-03-20T20:55:21.162Z,10.60
2023-03-20T20:57:49.077Z,10.60
2023-03-20T21:00:17.902Z,10.60
2023-03-20T21:02:44.710Z,10.60
2023-03-20T21:05:14.090Z,10.60
2023-03-20T21:07:46.182Z,10.70
2023-03-20T21:10:16.830Z,10.60
2023-03-20T21:12:58.128Z,10.70
2023-03-20T21:15:25.660Z,10.60
2023-03-20T21:18:00.521Z,10.60
2023-03-20T21:20:28.791Z,10.70
2023-03-20T21:22:55.654Z,10.70
2023-03-20T21:25:36.241Z,10.70
2023-03-20T21:28:06.865Z,10.70
2023-03-20T21:30:33.830Z,10.70
2023-03-20T21:33:01.051Z,10.70
2023-03-20T21:35:28.749Z,10.70
2023-03-20T21:40:43.010Z,10.70
2023-03-20T21:43:10.909Z,10.80
2023-03-20T21:46:20.920Z,10.80
2023-03-20T21:49:03.769Z,10.80
2023-03-20T22:00:05.438Z,10.80
2023-03-20T22:02:24.531Z,10.80
2023-03-20T22:05:43.355Z,10.80
2023-03-20T22:08:19.567Z,10.80
2023-03-20T22:16:43.251Z,10.80
2023-03-20T22:19:45.918Z,10.80
2023-03-20T22:22:22.988Z,10.80
2023-03-20T22:33:39.070Z,10.80
2023-03-20T22:42:03.605Z,10.80
2023-03-20T22:44:41.604Z,10.80
2023-03-20T22:46:47.042Z,10.80
2023-03-20T23:31:09.559Z,10.60
2023-03-20T23:33:38.652Z,10.60
2023-03-20T23:36:16.536Z,10.60
2023-03-20T23:38:48.855Z,10.70
2023-03-20T23:41:15.870Z,10.70
2023-03-20T23:43:43.162Z,10.70
2023-03-20T23:46:10.851Z,10.60
2023-03-20T23:48:38.658Z,10.50
2023-03-20T23:51:06.255Z,10.60
2023-03-20T23:53:33.289Z,10.60
2023-03-20T23:56:00.117Z,10.60
2023-03-20T23:58:28.071Z,10.70
